Time;durP1;ratioP1;P1;durP2;ratioP2;P2;SDS_P1;SDS_P2;PMS_P1;PMS_P2;Temp;Humidity;BMP_temperature;BMP_pressure;BME280_temperature;BME280_humidity;BME280_pressure;Samples;Min_cycle;Max_cycle;Signal;HPM_P1;HPM_P2
2022/03/06 00:01:49;;;;;;;27.33;17.85;;;;;;;;;;5071409;28;20040;-76
2022/03/06 00:04:16;;;;;;;30.20;17.90;;;;;;;;;;5035507;28;20490;-76
2022/03/06 00:06:42;;;;;;;27.90;17.70;;;;;;;;;;5036684;28;20025;-76
2022/03/06 00:09:08;;;;;;;29.48;18.15;;;;;;;;;;5036799;28;20028;-76
2022/03/06 00:11:35;;;;;;;28.90;17.38;;;;;;;;;;5032645;28;20031;-76
2022/03/06 00:14:01;;;;;;;27.20;17.30;;;;;;;;;;5038885;28;20540;-76
2022/03/06 00:16:28;;;;;;;28.42;17.65;;;;;;;;;;5036557;28;20021;-76
2022/03/06 00:18:54;;;;;;;26.83;17.30;;;;;;;;;;5035330;28;20029;-76
2022/03/06 00:21:20;;;;;;;27.15;16.88;;;;;;;;;;5036895;28;20021;-76
2022/03/06 00:23:47;;;;;;;25.27;16.38;;;;;;;;;;5031948;28;20029;-76
2022/03/06 00:26:13;;;;;;;26.35;16.42;;;;;;;;;;5036257;28;20479;-75
2022/03/06 00:28:40;;;;;;;28.55;17.25;;;;;;;;;;5037390;28;20033;-76
2022/03/06 00:31:07;;;;;;;25.95;16.38;;;;;;;;;;5036446;28;20017;-76
2022/03/06 00:33:34;;;;;;;27.38;16.20;;;;;;;;;;5036368;28;20370;-75
2022/03/06 00:36:01;;;;;;;26.02;16.10;;;;;;;;;;5035245;28;20017;-76
2022/03/06 00:38:28;;;;;;;26.25;17.08;;;;;;;;;;5032636;28;20038;-76
2022/03/06 00:40:54;;;;;;;28.42;17.13;;;;;;;;;;5038088;28;20049;-76
2022/03/06 00:43:20;;;;;;;27.52;15.77;;;;;;;;;;5036454;28;20034;-76
2022/03/06 00:45:47;;;;;;;26.60;16.25;;;;;;;;;;5036062;28;20030;-76
2022/03/06 00:48:13;;;;;;;26.08;16.52;;;;;;;;;;5036209;28;20017;-76
2022/03/06 00:50:40;;;;;;;25.83;16.35;;;;;;;;;;5032100;28;20054;-76
2022/03/06 00:53:06;;;;;;;26.10;15.77;;;;;;;;;;5036998;28;20390;-76
2022/03/06 00:55:33;;;;;;;24.83;16.33;;;;;;;;;;5036307;28;20025;-76
2022/03/06 00:58:05;;;;;;;23.27;15.73;;;;;;;;;;5036119;28;20025;-76
2022/03/06 01:00:34;;;;;;;23.02;14.70;;;;;;;;;;5035784;28;20047;-76
2022/03/06 01:03:01;;;;;;;23.45;15.07;;;;;;;;;;5033339;28;20366;-76
2022/03/06 01:05:27;;;;;;;25.80;15.95;;;;;;;;;;5032563;28;20040;-76
2022/03/06 01:07:53;;;;;;;26.45;15.43;;;;;;;;;;5036350;28;20017;-76
2022/03/06 01:10:20;;;;;;;23.65;14.85;;;;;;;;;;5035762;28;20482;-75
2022/03/06 01:12:46;;;;;;;26.38;15.05;;;;;;;;;;5035638;28;20150;-75
2022/03/06 01:15:13;;;;;;;23.13;14.07;;;;;;;;;;5035546;28;20512;-76
2022/03/06 01:17:39;;;;;;;21.92;14.02;;;;;;;;;;5031628;28;20044;-76
2022/03/06 01:20:06;;;;;;;24.52;14.30;;;;;;;;;;5036888;28;20406;-75
2022/03/06 01:22:33;;;;;;;21.42;13.32;;;;;;;;;;5035879;28;20022;-76
2022/03/06 01:24:59;;;;;;;20.05;13.65;;;;;;;;;;5034660;28;20033;-75
2022/03/06 01:27:25;;;;;;;19.95;12.95;;;;;;;;;;5033164;28;20490;-76
2022/03/06 01:29:52;;;;;;;24.58;13.48;;;;;;;;;;5032942;28;20024;-76
2022/03/06 01:32:18;;;;;;;21.08;13.05;;;;;;;;;;5033780;28;20029;-76
2022/03/06 01:34:44;;;;;;;20.83;13.18;;;;;;;;;;5036434;28;20029;-75
2022/03/06 01:37:11;;;;;;;21.25;13.63;;;;;;;;;;5035187;28;20032;-76
2022/03/06 01:39:37;;;;;;;21.70;13.13;;;;;;;;;;5034923;28;20033;-75
2022/03/06 01:42:05;;;;;;;22.33;13.80;;;;;;;;;;5032979;28;20033;-76
2022/03/06 01:44:31;;;;;;;21.27;14.07;;;;;;;;;;5030508;28;20491;-75
2022/03/06 01:46:57;;;;;;;18.65;12.60;;;;;;;;;;5036546;28;20025;-76
2022/03/06 01:49:24;;;;;;;18.15;11.82;;;;;;;;;;5034591;28;20070;-75
2022/03/06 01:51:50;;;;;;;21.33;13.18;;;;;;;;;;5035172;28;20033;-76
2022/03/06 01:54:16;;;;;;;20.17;12.40;;;;;;;;;;5034976;28;20013;-76
2022/03/06 01:56:43;;;;;;;19.40;12.93;;;;;;;;;;5031190;28;20047;-75
2022/03/06 01:59:10;;;;;;;22.38;12.73;;;;;;;;;;5035248;28;20560;-76
2022/03/06 02:01:37;;;;;;;21.25;12.90;;;;;;;;;;5034115;28;20040;-75
2022/03/06 02:04:03;;;;;;;19.15;12.50;;;;;;;;;;5034246;28;20409;-76
2022/03/06 02:06:30;;;;;;;19.63;13.88;;;;;;;;;;5034725;28;20040;-76
2022/03/06 02:08:56;;;;;;;18.75;12.30;;;;;;;;;;5033047;28;20026;-75
2022/03/06 02:11:23;;;;;;;19.02;12.30;;;;;;;;;;5032149;28;20018;-75
2022/03/06 02:13:50;;;;;;;20.88;13.25;;;;;;;;;;5036580;28;20051;-75
2022/03/06 02:16:16;;;;;;;20.33;13.40;;;;;;;;;;5034686;28;20025;-76
2022/03/06 02:18:42;;;;;;;20.35;12.85;;;;;;;;;;5034074;28;20045;-76
2022/03/06 02:21:10;;;;;;;20.83;13.15;;;;;;;;;;5032986;28;20012;-76
2022/03/06 02:23:37;;;;;;;20.73;13.25;;;;;;;;;;5013365;28;20033;-75
2022/03/06 02:26:04;;;;;;;22.85;13.85;;;;;;;;;;5036333;28;20025;-75
2022/03/06 02:28:30;;;;;;;19.27;13.07;;;;;;;;;;5034203;28;20021;-76
2022/03/06 02:30:57;;;;;;;20.13;13.30;;;;;;;;;;5034389;28;20508;-75
2022/03/06 02:33:23;;;;;;;20.45;12.90;;;;;;;;;;5033933;28;20039;-75
2022/03/06 02:35:50;;;;;;;19.48;12.70;;;;;;;;;;5030569;28;20017;-75
2022/03/06 02:38:17;;;;;;;21.08;13.13;;;;;;;;;;5031745;28;20437;-75
2022/03/06 02:40:44;;;;;;;20.83;12.93;;;;;;;;;;5035516;28;20049;-75
2022/03/06 02:43:11;;;;;;;18.77;12.05;;;;;;;;;;5034443;28;20017;-75
2022/03/06 02:45:39;;;;;;;21.45;12.43;;;;;;;;;;5034069;28;20491;-75
2022/03/06 02:48:06;;;;;;;22.40;12.80;;;;;;;;;;5033416;28;20078;-75
2022/03/06 02:50:34;;;;;;;21.23;12.80;;;;;;;;;;5030206;28;20025;-75
2022/03/06 02:53:01;;;;;;;21.23;13.07;;;;;;;;;;5036147;28;20029;-75
2022/03/06 02:55:27;;;;;;;20.27;11.77;;;;;;;;;;5034356;28;20038;-76
2022/03/06 02:57:54;;;;;;;20.05;12.68;;;;;;;;;;5034081;28;20505;-76
2022/03/06 03:00:21;;;;;;;22.63;13.23;;;;;;;;;;5032550;28;20041;-76
2022/03/06 03:02:48;;;;;;;23.13;12.98;;;;;;;;;;5029409;28;20030;-75
2022/03/06 03:05:15;;;;;;;20.88;12.02;;;;;;;;;;5033041;28;20037;-76
2022/03/06 03:07:42;;;;;;;19.52;12.45;;;;;;;;;;5035619;28;20038;-76
2022/03/06 03:10:09;;;;;;;21.50;12.68;;;;;;;;;;5033882;28;20505;-75
2022/03/06 03:12:36;;;;;;;20.05;12.13;;;;;;;;;;5033900;28;20368;-76
2022/03/06 03:15:03;;;;;;;20.65;12.63;;;;;;;;;;5032262;28;20021;-75
2022/03/06 03:17:30;;;;;;;21.90;11.40;;;;;;;;;;5029795;28;20017;-75
2022/03/06 03:19:57;;;;;;;18.33;12.13;;;;;;;;;;5035764;28;20052;-75
2022/03/06 03:22:23;;;;;;;17.83;12.07;;;;;;;;;;5033898;28;20061;-75
2022/03/06 03:24:50;;;;;;;20.08;12.88;;;;;;;;;;5032745;28;20032;-75
2022/03/06 03:27:16;;;;;;;19.90;12.65;;;;;;;;;;5033892;28;20009;-76
2022/03/06 03:29:42;;;;;;;19.33;12.05;;;;;;;;;;5030524;28;20022;-75
2022/03/06 03:32:09;;;;;;;17.75;11.85;;;;;;;;;;5033691;28;20022;-76
2022/03/06 03:34:36;;;;;;;18.30;12.30;;;;;;;;;;5034231;28;20029;-75
2022/03/06 03:37:02;;;;;;;18.48;12.00;;;;;;;;;;5033754;28;20479;-75
2022/03/06 03:39:28;;;;;;;22.25;11.70;;;;;;;;;;5032253;28;20046;-75
2022/03/06 03:41:55;;;;;;;20.02;12.23;;;;;;;;;;5030165;28;20045;-75
2022/03/06 03:44:21;;;;;;;21.48;12.30;;;;;;;;;;5030999;28;20032;-75
2022/03/06 03:46:48;;;;;;;20.95;12.35;;;;;;;;;;5035263;28;20022;-75
2022/03/06 03:49:14;;;;;;;17.73;11.55;;;;;;;;;;5033621;28;20026;-75
2022/03/06 03:51:41;;;;;;;18.50;11.93;;;;;;;;;;5036285;28;20033;-75
2022/03/06 03:54:08;;;;;;;17.38;11.50;;;;;;;;;;5037038;28;20017;-75
2022/03/06 03:56:34;;;;;;;19.15;12.32;;;;;;;;;;5032895;28;20032;-75
2022/03/06 03:59:01;;;;;;;18.80;12.18;;;;;;;;;;5038958;28;20055;-76
2022/03/06 04:01:27;;;;;;;16.10;10.80;;;;;;;;;;5036851;28;20035;-75
2022/03/06 04:03:53;;;;;;;18.85;11.15;;;;;;;;;;5037149;28;20075;-75
2022/03/06 04:06:19;;;;;;;19.58;12.02;;;;;;;;;;5037089;28;20055;-76
2022/03/06 04:08:46;;;;;;;18.85;11.20;;;;;;;;;;5033899;28;20033;-75
2022/03/06 04:11:12;;;;;;;18.20;11.43;;;;;;;;;;5036726;28;20025;-75
2022/03/06 04:13:38;;;;;;;19.92;11.27;;;;;;;;;;5037815;28;20030;-75
2022/03/06 04:16:05;;;;;;;19.90;12.20;;;;;;;;;;5036600;28;20045;-75
2022/03/06 04:18:31;;;;;;;21.35;12.27;;;;;;;;;;5035248;28;20051;-76
2022/03/06 04:20:58;;;;;;;19.33;11.52;;;;;;;;;;5033887;28;20025;-75
2022/03/06 04:23:24;;;;;;;18.67;12.07;;;;;;;;;;5033462;28;20047;-76
2022/03/06 04:25:50;;;;;;;21.83;11.85;;;;;;;;;;5038441;28;20033;-75
2022/03/06 04:28:17;;;;;;;22.48;12.93;;;;;;;;;;5036543;28;20043;-75
2022/03/06 04:30:43;;;;;;;17.85;11.38;;;;;;;;;;5036125;28;20021;-75
2022/03/06 04:33:09;;;;;;;18.13;11.07;;;;;;;;;;5036414;28;20021;-75
2022/03/06 04:35:36;;;;;;;19.00;11.68;;;;;;;;;;5032206;28;20026;-75
2022/03/06 04:38:02;;;;;;;21.25;11.75;;;;;;;;;;5038288;28;20090;-75
2022/03/06 04:40:29;;;;;;;17.17;11.15;;;;;;;;;;5034839;28;20037;-75
2022/03/06 04:42:57;;;;;;;21.30;11.88;;;;;;;;;;5036289;28;20045;-75
2022/03/06 04:45:25;;;;;;;19.92;11.70;;;;;;;;;;5034591;28;20029;-75
2022/03/06 04:47:52;;;;;;;18.42;11.43;;;;;;;;;;5033927;28;20505;-75
2022/03/06 04:50:18;;;;;;;21.05;12.00;;;;;;;;;;5034739;28;20466;-75
2022/03/06 04:52:44;;;;;;;18.23;12.00;;;;;;;;;;5037680;28;20518;-75
2022/03/06 04:55:11;;;;;;;19.48;11.77;;;;;;;;;;5035754;28;20047;-75
2022/03/06 04:57:37;;;;;;;18.38;11.40;;;;;;;;;;5034663;28;20018;-73
2022/03/06 05:00:05;;;;;;;20.13;11.77;;;;;;;;;;5033750;28;20029;-75
2022/03/06 05:02:31;;;;;;;16.80;11.20;;;;;;;;;;5063798;28;20505;-75
2022/03/06 05:04:58;;;;;;;18.70;11.10;;;;;;;;;;5037799;28;20097;-75
2022/03/06 05:07:24;;;;;;;20.33;11.15;;;;;;;;;;5034858;28;20017;-75
2022/03/06 05:09:50;;;;;;;20.08;12.00;;;;;;;;;;5035873;28;20021;-75
2022/03/06 05:12:17;;;;;;;17.88;11.60;;;;;;;;;;5035605;28;20017;-75
2022/03/06 05:14:43;;;;;;;17.17;11.02;;;;;;;;;;5032162;28;20048;-75
2022/03/06 05:17:09;;;;;;;19.90;11.95;;;;;;;;;;5035868;28;20033;-75
2022/03/06 05:19:36;;;;;;;18.25;11.35;;;;;;;;;;5036280;28;20038;-75
2022/03/06 05:22:02;;;;;;;22.50;11.07;;;;;;;;;;5035421;28;20018;-74
2022/03/06 05:24:29;;;;;;;24.02;11.98;;;;;;;;;;5035603;28;20032;-75
2022/03/06 05:26:55;;;;;;;17.42;11.48;;;;;;;;;;5033331;28;20017;-75
2022/03/06 05:29:21;;;;;;;19.83;11.25;;;;;;;;;;5032733;28;20026;-75
2022/03/06 05:31:48;;;;;;;20.83;11.63;;;;;;;;;;5037385;28;20022;-75
2022/03/06 05:34:14;;;;;;;22.05;12.23;;;;;;;;;;5035188;28;20017;-74
2022/03/06 05:36:40;;;;;;;18.55;11.25;;;;;;;;;;5033860;28;20041;-75
2022/03/06 05:39:07;;;;;;;20.23;11.55;;;;;;;;;;5032253;28;20027;-75
2022/03/06 05:41:33;;;;;;;20.45;11.93;;;;;;;;;;5030409;28;20042;-75
2022/03/06 05:43:59;;;;;;;20.95;11.88;;;;;;;;;;5036959;28;20051;-75
2022/03/06 05:46:26;;;;;;;18.30;11.15;;;;;;;;;;5035105;28;20033;-75
2022/03/06 05:48:52;;;;;;;20.40;11.70;;;;;;;;;;5035246;28;20021;-75
2022/03/06 05:51:18;;;;;;;20.65;11.35;;;;;;;;;;5035250;28;20035;-74
2022/03/06 05:53:45;;;;;;;21.20;12.43;;;;;;;;;;5031638;28;20017;-75
2022/03/06 05:56:11;;;;;;;20.77;12.80;;;;;;;;;;5035045;28;20048;-75
2022/03/06 05:58:37;;;;;;;19.38;11.93;;;;;;;;;;5035254;28;20032;-75
2022/03/06 06:01:04;;;;;;;20.15;11.98;;;;;;;;;;5034862;28;20024;-75
2022/03/06 06:03:30;;;;;;;23.90;11.90;;;;;;;;;;5035266;28;20083;-75
2022/03/06 06:05:56;;;;;;;20.40;11.55;;;;;;;;;;5033016;28;20432;-74
2022/03/06 06:08:23;;;;;;;23.75;12.88;;;;;;;;;;5032026;28;20031;-75
2022/03/06 06:10:49;;;;;;;18.67;11.05;;;;;;;;;;5035075;28;20039;-75
2022/03/06 06:13:15;;;;;;;19.30;11.88;;;;;;;;;;5034257;28;20027;-75
2022/03/06 06:15:45;;;;;;;19.15;11.95;;;;;;;;;;5033179;28;20028;-75
2022/03/06 06:18:11;;;;;;;20.55;12.48;;;;;;;;;;5033034;28;20428;-74
2022/03/06 06:20:38;;;;;;;21.52;12.40;;;;;;;;;;5030257;28;20037;-74
2022/03/06 06:23:04;;;;;;;20.02;12.52;;;;;;;;;;5036277;28;20032;-75
2022/03/06 06:25:31;;;;;;;20.65;12.02;;;;;;;;;;5034177;28;20032;-74
2022/03/06 06:27:57;;;;;;;22.13;11.73;;;;;;;;;;5034379;28;20024;-74
2022/03/06 06:30:24;;;;;;;21.83;12.48;;;;;;;;;;5034340;28;20074;-75
2022/03/06 06:32:50;;;;;;;21.90;12.68;;;;;;;;;;5031789;28;20017;-75
2022/03/06 06:35:17;;;;;;;20.15;11.38;;;;;;;;;;5032956;28;20491;-74
2022/03/06 06:37:43;;;;;;;20.83;12.43;;;;;;;;;;5035767;28;20025;-74
2022/03/06 06:40:10;;;;;;;21.10;11.77;;;;;;;;;;5033631;28;20458;-75
2022/03/06 06:42:36;;;;;;;25.10;13.95;;;;;;;;;;5033121;28;20032;-75
2022/03/06 06:45:03;;;;;;;29.55;13.63;;;;;;;;;;5033470;28;20469;-74
2022/03/06 06:47:29;;;;;;;21.35;12.85;;;;;;;;;;5030750;28;20033;-75
2022/03/06 06:49:55;;;;;;;20.25;12.40;;;;;;;;;;5036137;28;20025;-75
2022/03/06 06:52:22;;;;;;;27.10;14.80;;;;;;;;;;5034184;28;20421;-75
2022/03/06 06:54:48;;;;;;;21.00;12.07;;;;;;;;;;5032452;28;20475;-75
2022/03/06 06:57:14;;;;;;;19.33;11.18;;;;;;;;;;5032790;28;20017;-75
2022/03/06 06:59:41;;;;;;;17.13;11.15;;;;;;;;;;5030268;28;20026;-75
2022/03/06 07:02:07;;;;;;;18.48;11.02;;;;;;;;;;5035365;28;20079;-75
2022/03/06 07:04:34;;;;;;;20.80;11.75;;;;;;;;;;5066701;28;20040;-75
2022/03/06 07:07:00;;;;;;;20.30;12.02;;;;;;;;;;5033894;28;20024;-75
2022/03/06 07:09:26;;;;;;;20.08;11.63;;;;;;;;;;5033515;28;20035;-75
2022/03/06 07:11:52;;;;;;;21.65;11.88;;;;;;;;;;5031716;28;20026;-75
2022/03/06 07:14:19;;;;;;;19.95;12.15;;;;;;;;;;5032257;28;20028;-75
2022/03/06 07:16:45;;;;;;;17.80;11.85;;;;;;;;;;5035794;28;20029;-75
2022/03/06 07:19:12;;;;;;;16.23;11.35;;;;;;;;;;5033897;28;20063;-75
2022/03/06 07:21:38;;;;;;;19.20;11.93;;;;;;;;;;5032988;28;20096;-75
2022/03/06 07:24:05;;;;;;;20.73;11.77;;;;;;;;;;5032859;28;20009;-75
2022/03/06 07:26:32;;;;;;;16.92;11.20;;;;;;;;;;5032401;28;20028;-75
2022/03/06 07:28:58;;;;;;;16.17;11.60;;;;;;;;;;5039814;28;20029;-75
2022/03/06 07:31:25;;;;;;;18.52;11.35;;;;;;;;;;5037782;28;20026;-76
2022/03/06 07:33:51;;;;;;;17.63;11.27;;;;;;;;;;5035045;28;20031;-75
2022/03/06 07:36:17;;;;;;;18.00;11.23;;;;;;;;;;5036022;28;20402;-76
2022/03/06 07:38:44;;;;;;;17.23;11.23;;;;;;;;;;5033799;28;20021;-75
2022/03/06 07:41:11;;;;;;;16.15;10.68;;;;;;;;;;5037793;28;20049;-76
2022/03/06 07:43:37;;;;;;;18.60;10.45;;;;;;;;;;5038161;28;20029;-76
2022/03/06 07:46:03;;;;;;;16.02;10.43;;;;;;;;;;5037308;28;20494;-76
2022/03/06 07:48:29;;;;;;;18.95;11.73;;;;;;;;;;5037279;28;20029;-76
2022/03/06 07:50:56;;;;;;;15.90;11.05;;;;;;;;;;5035580;28;20075;-76
2022/03/06 07:53:22;;;;;;;15.88;10.85;;;;;;;;;;5034141;28;20025;-76
2022/03/06 07:55:49;;;;;;;19.35;11.40;;;;;;;;;;5039393;28;20030;-76
2022/03/06 07:58:15;;;;;;;15.32;10.80;;;;;;;;;;5037082;28;20029;-76
2022/03/06 08:00:41;;;;;;;17.15;11.45;;;;;;;;;;5036875;28;20083;-77
2022/03/06 08:03:08;;;;;;;16.13;11.10;;;;;;;;;;5037208;28;20013;-76
2022/03/06 08:05:34;;;;;;;18.33;12.32;;;;;;;;;;5032591;28;20406;-76
2022/03/06 08:08:00;;;;;;;19.80;13.23;;;;;;;;;;5039258;28;20043;-76
2022/03/06 08:10:27;;;;;;;19.13;12.77;;;;;;;;;;5036866;28;20024;-76
2022/03/06 08:12:53;;;;;;;21.52;13.25;;;;;;;;;;5035758;28;20030;-77
2022/03/06 08:15:19;;;;;;;19.27;12.18;;;;;;;;;;5035258;28;20021;-77
2022/03/06 08:17:46;;;;;;;18.77;12.15;;;;;;;;;;5033921;28;20035;-78
2022/03/06 08:20:12;;;;;;;17.33;12.32;;;;;;;;;;5036718;28;20045;-77
2022/03/06 08:22:39;;;;;;;18.42;12.18;;;;;;;;;;5037494;28;20083;-78
2022/03/06 08:25:05;;;;;;;16.98;12.68;;;;;;;;;;5036725;28;20044;-78
2022/03/06 08:27:32;;;;;;;17.80;12.60;;;;;;;;;;5037552;28;20025;-78
2022/03/06 08:29:59;;;;;;;19.50;12.52;;;;;;;;;;5048175;28;20037;-78
2022/03/06 08:32:25;;;;;;;14.68;11.10;;;;;;;;;;5033520;28;20021;-79
2022/03/06 08:34:52;;;;;;;16.15;11.07;;;;;;;;;;5038416;28;20173;-78
2022/03/06 08:37:19;;;;;;;13.65;10.15;;;;;;;;;;5035812;28;20029;-79
2022/03/06 08:39:49;;;;;;;12.93;10.68;;;;;;;;;;5036355;28;20044;-79
2022/03/06 08:42:16;;;;;;;13.30;10.40;;;;;;;;;;5036447;28;20033;-79
2022/03/06 08:44:42;;;;;;;14.43;11.00;;;;;;;;;;5032617;28;20409;-79
2022/03/06 08:47:09;;;;;;;13.65;10.82;;;;;;;;;;5037079;28;20021;-79
2022/03/06 08:49:36;;;;;;;12.98;10.20;;;;;;;;;;5035489;28;20022;-79
2022/03/06 08:52:02;;;;;;;12.55;10.00;;;;;;;;;;5035112;28;20056;-79
2022/03/06 08:54:28;;;;;;;13.88;10.82;;;;;;;;;;5034794;28;20025;-79
2022/03/06 08:56:55;;;;;;;13.02;10.73;;;;;;;;;;5034003;28;20028;-79
2022/03/06 08:59:21;;;;;;;12.68;10.75;;;;;;;;;;5033782;28;20506;-80
2022/03/06 09:01:48;;;;;;;13.40;10.52;;;;;;;;;;5035901;28;20044;-80
2022/03/06 09:04:14;;;;;;;13.63;10.90;;;;;;;;;;5035670;28;20010;-79
2022/03/06 09:06:42;;;;;;;14.40;11.48;;;;;;;;;;5035866;28;20518;-80
2022/03/06 09:09:09;;;;;;;14.65;11.40;;;;;;;;;;5034545;28;20021;-80
2022/03/06 09:11:36;;;;;;;15.77;11.80;;;;;;;;;;5015685;28;20034;-80
2022/03/06 09:14:02;;;;;;;12.80;11.05;;;;;;;;;;5037597;28;20059;-80
2022/03/06 09:16:28;;;;;;;14.13;10.90;;;;;;;;;;5035962;28;20047;-80
2022/03/06 09:18:55;;;;;;;15.75;11.63;;;;;;;;;;5035220;28;20041;-80
2022/03/06 09:21:21;;;;;;;16.98;12.55;;;;;;;;;;5035859;28;20082;-81
2022/03/06 09:23:47;;;;;;;14.70;12.52;;;;;;;;;;5032699;28;20039;-81
2022/03/06 09:26:14;;;;;;;14.63;12.15;;;;;;;;;;5035712;28;20021;-81
2022/03/06 09:28:40;;;;;;;15.50;11.85;;;;;;;;;;5036765;28;20087;-81
2022/03/06 09:31:06;;;;;;;14.20;12.38;;;;;;;;;;5036266;28;20501;-81
2022/03/06 09:33:33;;;;;;;18.42;13.23;;;;;;;;;;5041642;28;20021;-80
2022/03/06 09:36:01;;;;;;;15.85;12.15;;;;;;;;;;5033953;28;20029;-81
2022/03/06 09:38:28;;;;;;;13.00;11.60;;;;;;;;;;5031923;28;20076;-81
2022/03/06 09:40:55;;;;;;;15.80;13.07;;;;;;;;;;5037124;28;20055;-81
2022/03/06 09:43:22;;;;;;;16.85;12.98;;;;;;;;;;5035569;28;20311;-81
2022/03/06 09:45:48;;;;;;;15.27;12.63;;;;;;;;;;5035366;28;20022;-81
2022/03/06 09:48:16;;;;;;;14.68;12.20;;;;;;;;;;5034084;28;20037;-81
2022/03/06 09:50:42;;;;;;;14.63;12.25;;;;;;;;;;5031369;28;20029;-81
2022/03/06 09:53:09;;;;;;;16.05;13.20;;;;;;;;;;5035853;28;20025;-81
2022/03/06 09:55:36;;;;;;;15.15;12.20;;;;;;;;;;5034247;28;20394;-81
2022/03/06 09:58:02;;;;;;;17.33;12.70;;;;;;;;;;5035324;28;20082;-80
2022/03/06 10:00:29;;;;;;;15.68;12.77;;;;;;;;;;5034962;28;20074;-80
2022/03/06 10:02:55;;;;;;;15.93;11.95;;;;;;;;;;5032762;28;20501;-80
2022/03/06 10:05:29;;;;;;;17.58;13.20;;;;;;;;;;5048749;28;20451;-79
2022/03/06 10:08:14;;;;;;;18.10;11.68;;;;;;;;;;5035701;28;20021;-79
2022/03/06 10:10:40;;;;;;;15.63;12.02;;;;;;;;;;5035677;28;20033;-80
2022/03/06 10:13:20;;;;;;;18.20;12.02;;;;;;;;;;5033212;28;20403;-79
2022/03/06 10:15:59;;;;;;;16.23;11.65;;;;;;;;;;5034747;28;20021;-79
2022/03/06 10:18:25;;;;;;;15.55;12.35;;;;;;;;;;5034647;28;20029;-80
2022/03/06 10:20:52;;;;;;;16.13;11.95;;;;;;;;;;5032106;28;20398;-80
2022/03/06 10:23:25;;;;;;;15.63;12.27;;;;;;;;;;5033190;28;20017;-81
2022/03/06 10:26:09;;;;;;;17.92;11.82;;;;;;;;;;5034997;28;20033;-81
2022/03/06 10:28:53;;;;;;;15.63;12.02;;;;;;;;;;5033324;28;20385;-81
2022/03/06 10:31:21;;;;;;;16.27;13.07;;;;;;;;;;5034184;28;20021;-80
2022/03/06 10:33:55;;;;;;;15.38;12.25;;;;;;;;;;5034394;28;20027;-79
2022/03/06 10:36:34;;;;;;;16.13;12.48;;;;;;;;;;5034483;28;20021;-79
2022/03/06 10:39:01;;;;;;;15.25;11.77;;;;;;;;;;5033234;28;20020;-80
2022/03/06 10:41:39;;;;;;;14.93;11.68;;;;;;;;;;5030912;28;20053;-80
2022/03/06 10:44:06;;;;;;;15.40;12.63;;;;;;;;;;5047561;28;20021;-80
2022/03/06 10:46:34;;;;;;;17.30;12.98;;;;;;;;;;5032748;28;20398;-80
2022/03/06 10:49:08;;;;;;;15.98;12.20;;;;;;;;;;5032973;28;20014;-80
2022/03/06 10:51:52;;;;;;;14.88;12.00;;;;;;;;;;5032943;28;20022;-80
2022/03/06 10:54:19;;;;;;;15.90;11.98;;;;;;;;;;5034603;28;20036;-80
2022/03/06 10:56:50;;;;;;;14.93;11.82;;;;;;;;;;5030859;28;20013;-80
2022/03/06 10:59:26;;;;;;;15.30;12.25;;;;;;;;;;5033858;28;20033;-80
2022/03/06 11:01:53;;;;;;;16.45;12.70;;;;;;;;;;5038481;28;20022;-80
2022/03/06 11:04:19;;;;;;;16.05;12.07;;;;;;;;;;5038340;28;20038;-80
2022/03/06 11:06:47;;;;;;;13.93;12.05;;;;;;;;;;5037224;28;20020;-80
2022/03/06 11:09:14;;;;;;;14.77;12.02;;;;;;;;;;5038350;28;20036;-80
2022/03/06 11:11:41;;;;;;;16.50;12.45;;;;;;;;;;5034253;28;20398;-81
2022/03/06 11:14:08;;;;;;;15.77;12.60;;;;;;;;;;5039393;28;20037;-81
2022/03/06 11:16:38;;;;;;;15.75;12.18;;;;;;;;;;5038092;28;20035;-80
2022/03/06 11:19:05;;;;;;;15.40;12.55;;;;;;;;;;5037944;28;20023;-80
2022/03/06 11:21:35;;;;;;;14.80;11.90;;;;;;;;;;5037900;28;20040;-80
2022/03/06 11:24:06;;;;;;;15.00;12.45;;;;;;;;;;5036911;28;20025;-81
2022/03/06 11:26:35;;;;;;;14.95;12.23;;;;;;;;;;5033310;28;20387;-80
2022/03/06 11:29:22;;;;;;;15.30;12.30;;;;;;;;;;5039594;28;20017;-80
2022/03/06 11:31:48;;;;;;;15.60;12.40;;;;;;;;;;5037666;28;20051;-80
2022/03/06 11:34:28;;;;;;;14.57;13.02;;;;;;;;;;5037715;28;20022;-81
2022/03/06 11:36:55;;;;;;;16.83;12.00;;;;;;;;;;5037738;28;20029;-81
2022/03/06 11:39:30;;;;;;;14.23;12.18;;;;;;;;;;5037762;28;20032;-81
2022/03/06 11:41:57;;;;;;;15.43;12.20;;;;;;;;;;5034484;28;20034;-81
2022/03/06 11:44:46;;;;;;;19.88;16.48;;;;;;;;;;5033348;28;20025;-81
2022/03/06 11:47:12;;;;;;;14.93;12.63;;;;;;;;;;5049062;28;20029;-81
2022/03/06 11:49:39;;;;;;;13.45;12.02;;;;;;;;;;5038161;28;20035;-81
2022/03/06 11:52:24;;;;;;;15.20;12.93;;;;;;;;;;5037257;28;20498;-81
2022/03/06 11:54:50;;;;;;;13.48;12.02;;;;;;;;;;5036433;28;20033;-80
2022/03/06 11:57:35;;;;;;;14.20;12.00;;;;;;;;;;5036157;28;20028;-81
2022/03/06 12:00:17;;;;;;;13.27;11.88;;;;;;;;;;5035756;28;20029;-81
2022/03/06 12:02:46;;;;;;;13.30;11.88;;;;;;;;;;5033784;28;20034;-81
2022/03/06 12:05:14;;;;;;;14.25;12.18;;;;;;;;;;5037092;28;20021;-81
2022/03/06 12:07:41;;;;;;;13.57;12.18;;;;;;;;;;5037983;28;20021;-80
2022/03/06 12:10:10;;;;;;;14.57;12.10;;;;;;;;;;5035781;28;20040;-80
2022/03/06 12:12:37;;;;;;;13.07;11.65;;;;;;;;;;5036238;28;20026;-80
2022/03/06 12:15:14;;;;;;;16.05;12.18;;;;;;;;;;5035135;28;20016;-81
2022/03/06 12:17:40;;;;;;;17.15;11.60;;;;;;;;;;5017575;28;20044;-81
2022/03/06 12:20:11;;;;;;;12.88;11.57;;;;;;;;;;5038431;28;20033;-81
2022/03/06 12:22:44;;;;;;;13.70;12.25;;;;;;;;;;5036012;28;20030;-80
2022/03/06 12:25:14;;;;;;;14.18;12.25;;;;;;;;;;5036686;28;20379;-80
2022/03/06 12:27:59;;;;;;;13.98;11.52;;;;;;;;;;5036479;28;20026;-81
2022/03/06 12:30:25;;;;;;;14.07;12.13;;;;;;;;;;5035522;28;20025;-81
2022/03/06 12:32:52;;;;;;;13.48;12.07;;;;;;;;;;5032977;28;20030;-81
2022/03/06 12:35:19;;;;;;;14.35;12.27;;;;;;;;;;5035366;28;20024;-81
2022/03/06 12:37:45;;;;;;;14.52;11.48;;;;;;;;;;5038352;28;20025;-81
2022/03/06 12:40:13;;;;;;;15.07;11.27;;;;;;;;;;5036434;28;20045;-82
2022/03/06 12:42:40;;;;;;;16.73;11.50;;;;;;;;;;5036095;28;20030;-81
2022/03/06 12:45:09;;;;;;;13.75;12.13;;;;;;;;;;5026466;28;20025;-81
2022/03/06 12:47:40;;;;;;;13.05;11.68;;;;;;;;;;5047357;28;20028;-81
2022/03/06 12:50:07;;;;;;;12.82;11.52;;;;;;;;;;5045783;28;20021;-81
2022/03/06 12:52:34;;;;;;;14.63;11.00;;;;;;;;;;5036569;28;20371;-81
2022/03/06 12:55:03;;;;;;;13.30;10.77;;;;;;;;;;5036599;28;20025;-81
2022/03/06 12:57:36;;;;;;;12.13;10.82;;;;;;;;;;5035884;28;20067;-81
2022/03/06 13:00:05;;;;;;;11.63;10.43;;;;;;;;;;5034055;28;20040;-81
2022/03/06 13:02:31;;;;;;;13.68;10.60;;;;;;;;;;5032375;28;20384;-81
2022/03/06 13:04:58;;;;;;;11.88;10.25;;;;;;;;;;5038068;28;20025;-81
2022/03/06 13:07:25;;;;;;;13.65;10.90;;;;;;;;;;5036145;28;20032;-81
2022/03/06 13:09:55;;;;;;;12.50;10.60;;;;;;;;;;5036190;28;20021;-82
2022/03/06 13:12:22;;;;;;;11.15;9.90;;;;;;;;;;5035821;28;20024;-81
2022/03/06 13:14:49;;;;;;;12.00;10.18;;;;;;;;;;5032964;28;20513;-81
2022/03/06 13:17:18;;;;;;;13.23;9.75;;;;;;;;;;5035556;28;20023;-82
2022/03/06 13:19:49;;;;;;;10.73;9.63;;;;;;;;;;5037495;28;20042;-81
2022/03/06 13:22:15;;;;;;;;;;;;;;;;;;5036272;28;20024;-81
2022/03/06 13:24:46;;;;;;;11.23;9.45;;;;;;;;;;5033609;28;19909;-81
2022/03/06 13:27:13;;;;;;;9.73;8.73;;;;;;;;;;5033918;28;20025;-81
2022/03/06 13:29:39;;;;;;;12.35;9.98;;;;;;;;;;5031724;28;20075;-81
2022/03/06 13:32:06;;;;;;;11.25;10.00;;;;;;;;;;5037337;28;20026;-81
2022/03/06 13:34:42;;;;;;;12.85;9.63;;;;;;;;;;5035511;28;20029;-81
2022/03/06 13:37:08;;;;;;;10.55;9.35;;;;;;;;;;5034662;28;20504;-81
2022/03/06 13:39:35;;;;;;;10.20;8.90;;;;;;;;;;5035301;28;20397;-81
2022/03/06 13:42:01;;;;;;;11.80;8.80;;;;;;;;;;5032382;28;20036;-81
2022/03/06 13:44:28;;;;;;;10.35;7.35;;;;;;;;;;5032126;28;20025;-81
2022/03/06 13:46:55;;;;;;;8.57;7.68;;;;;;;;;;5037183;28;20086;-81
2022/03/06 13:49:22;;;;;;;10.65;6.88;;;;;;;;;;5035168;28;20551;-81
2022/03/06 13:52:08;;;;;;;9.85;7.65;;;;;;;;;;5035264;28;20017;-81
2022/03/06 13:54:35;;;;;;;8.32;7.40;;;;;;;;;;5034947;28;20031;-81
2022/03/06 13:57:02;;;;;;;9.35;6.60;;;;;;;;;;5032825;28;20025;-81
2022/03/06 13:59:30;;;;;;;10.27;7.15;;;;;;;;;;5031976;28;20130;-81
2022/03/06 14:02:06;;;;;;;9.60;8.00;;;;;;;;;;5036794;28;20021;-81
2022/03/06 14:04:33;;;;;;;7.63;6.85;;;;;;;;;;5032225;28;20023;-81
2022/03/06 14:07:03;;;;;;;8.32;7.25;;;;;;;;;;5033410;28;20022;-81
2022/03/06 14:09:31;;;;;;;8.63;7.53;;;;;;;;;;5034799;28;20036;-81
2022/03/06 14:12:06;;;;;;;7.78;6.65;;;;;;;;;;5033342;28;20017;-81
2022/03/06 14:14:36;;;;;;;7.70;6.90;;;;;;;;;;5029714;28;20022;-81
2022/03/06 14:17:04;;;;;;;8.60;7.30;;;;;;;;;;5036790;28;20417;-81
2022/03/06 14:19:30;;;;;;;8.65;7.68;;;;;;;;;;5034783;28;20482;-81
2022/03/06 14:21:57;;;;;;;8.43;7.05;;;;;;;;;;5034695;28;20022;-80